sensor_id;sensor_type;location;lat;lon;timestamp;P1;durP1;ratioP1;P2;durP2;ratioP2
41253;SDS011;26987;59.928;30.306;2023-04-10T00:01:11;6.28;;;2.25;;
41253;SDS011;26987;59.928;30.306;2023-04-10T00:03:39;5.32;;;1.80;;
41253;SDS011;26987;59.928;30.306;2023-04-10T00:06:07;4.65;;;1.85;;
41253;SDS011;26987;59.928;30.306;2023-04-10T00:08:35;6.43;;;1.40;;
41253;SDS011;26987;59.928;30.306;2023-04-10T00:11:04;4.97;;;1.60;;
41253;SDS011;26987;59.928;30.306;2023-04-10T00:13:32;5.65;;;1.42;;
41253;SDS011;26987;59.928;30.306;2023-04-10T00:16:02;3.60;;;1.40;;
41253;SDS011;26987;59.928;30.306;2023-04-10T00:18:30;3.45;;;1.38;;
41253;SDS011;26987;59.928;30.306;2023-04-10T00:20:58;3.60;;;1.52;;
41253;SDS011;26987;59.928;30.306;2023-04-10T00:23:26;6.13;;;1.70;;
41253;SDS011;26987;59.928;30.306;2023-04-10T00:25:56;10.82;;;2.00;;
41253;SDS011;26987;59.928;30.306;2023-04-10T00:28:26;3.67;;;1.42;;
41253;SDS011;26987;59.928;30.306;2023-04-10T00:30:53;6.00;;;1.60;;
41253;SDS011;26987;59.928;30.306;2023-04-10T00:33:21;9.45;;;1.50;;
41253;SDS011;26987;59.928;30.306;2023-04-10T00:35:49;5.57;;;1.40;;
41253;SDS011;26987;59.928;30.306;2023-04-10T00:38:17;5.15;;;1.90;;
41253;SDS011;26987;59.928;30.306;2023-04-10T00:40:47;6.25;;;1.73;;
41253;SDS011;26987;59.928;30.306;2023-04-10T00:43:15;9.65;;;2.05;;
41253;SDS011;26987;59.928;30.306;2023-04-10T00:45:46;3.00;;;1.65;;
41253;SDS011;26987;59.928;30.306;2023-04-10T00:48:14;15.68;;;2.10;;
41253;SDS011;26987;59.928;30.306;2023-04-10T00:50:42;4.15;;;1.77;;
41253;SDS011;26987;59.928;30.306;2023-04-10T00:53:12;8.45;;;2.10;;
41253;SDS011;26987;59.928;30.306;2023-04-10T00:55:40;9.35;;;2.00;;
41253;SDS011;26987;59.928;30.306;2023-04-10T00:58:09;3.95;;;1.55;;
41253;SDS011;26987;59.928;30.306;2023-04-10T01:00:39;6.95;;;1.70;;
41253;SDS011;26987;59.928;30.306;2023-04-10T01:03:09;5.90;;;1.58;;
41253;SDS011;26987;59.928;30.306;2023-04-10T01:05:40;4.75;;;1.35;;
41253;SDS011;26987;59.928;30.306;2023-04-10T01:08:16;9.05;;;1.67;;
41253;SDS011;26987;59.928;30.306;2023-04-10T01:10:52;4.10;;;1.90;;
41253;SDS011;26987;59.928;30.306;2023-04-10T01:13:29;4.45;;;1.55;;
41253;SDS011;26987;59.928;30.306;2023-04-10T01:16:04;9.82;;;1.77;;
41253;SDS011;26987;59.928;30.306;2023-04-10T01:18:37;7.57;;;1.70;;
41253;SDS011;26987;59.928;30.306;2023-04-10T01:21:11;4.60;;;1.83;;
41253;SDS011;26987;59.928;30.306;2023-04-10T01:23:48;5.35;;;1.67;;
41253;SDS011;26987;59.928;30.306;2023-04-10T01:26:36;7.53;;;1.90;;
41253;SDS011;26987;59.928;30.306;2023-04-10T01:29:16;9.90;;;1.52;;
41253;SDS011;26987;59.928;30.306;2023-04-10T01:31:47;7.38;;;1.77;;
41253;SDS011;26987;59.928;30.306;2023-04-10T01:34:19;3.58;;;1.65;;
41253;SDS011;26987;59.928;30.306;2023-04-10T01:36:50;5.82;;;1.83;;
41253;SDS011;26987;59.928;30.306;2023-04-10T01:39:21;4.45;;;1.50;;
41253;SDS011;26987;59.928;30.306;2023-04-10T01:41:51;11.88;;;3.03;;
41253;SDS011;26987;59.928;30.306;2023-04-10T01:44:35;4.05;;;1.85;;
41253;SDS011;26987;59.928;30.306;2023-04-10T01:47:07;8.55;;;1.55;;
41253;SDS011;26987;59.928;30.306;2023-04-10T01:49:35;4.20;;;1.67;;
41253;SDS011;26987;59.928;30.306;2023-04-10T01:52:09;7.10;;;2.22;;
41253;SDS011;26987;59.928;30.306;2023-04-10T01:54:38;8.57;;;2.00;;
41253;SDS011;26987;59.928;30.306;2023-04-10T01:57:11;7.80;;;1.65;;
41253;SDS011;26987;59.928;30.306;2023-04-10T01:59:52;4.45;;;1.85;;
41253;SDS011;26987;59.928;30.306;2023-04-10T02:02:19;8.48;;;1.83;;
41253;SDS011;26987;59.928;30.306;2023-04-10T02:04:47;8.05;;;1.90;;
41253;SDS011;26987;59.928;30.306;2023-04-10T02:07:19;6.85;;;1.65;;
41253;SDS011;26987;59.928;30.306;2023-04-10T02:09:53;3.65;;;1.67;;
41253;SDS011;26987;59.928;30.306;2023-04-10T02:12:27;6.95;;;1.63;;
41253;SDS011;26987;59.928;30.306;2023-04-10T02:14:59;8.50;;;1.52;;
41253;SDS011;26987;59.928;30.306;2023-04-10T02:17:30;6.65;;;1.75;;
41253;SDS011;26987;59.928;30.306;2023-04-10T02:19:59;14.00;;;2.35;;
41253;SDS011;26987;59.928;30.306;2023-04-10T02:22:29;3.58;;;1.60;;
41253;SDS011;26987;59.928;30.306;2023-04-10T02:24:57;5.43;;;1.75;;
41253;SDS011;26987;59.928;30.306;2023-04-10T02:27:27;12.27;;;1.80;;
41253;SDS011;26987;59.928;30.306;2023-04-10T02:29:58;5.72;;;1.60;;
41253;SDS011;26987;59.928;30.306;2023-04-10T02:32:29;9.40;;;1.90;;
41253;SDS011;26987;59.928;30.306;2023-04-10T02:34:58;10.15;;;1.90;;
41253;SDS011;26987;59.928;30.306;2023-04-10T02:37:26;8.77;;;2.08;;
41253;SDS011;26987;59.928;30.306;2023-04-10T02:39:55;6.65;;;1.70;;
41253;SDS011;26987;59.928;30.306;2023-04-10T02:42:24;3.55;;;1.73;;
41253;SDS011;26987;59.928;30.306;2023-04-10T02:44:56;4.35;;;1.55;;
41253;SDS011;26987;59.928;30.306;2023-04-10T02:47:29;7.75;;;1.85;;
41253;SDS011;26987;59.928;30.306;2023-04-10T02:49:57;7.55;;;1.95;;
41253;SDS011;26987;59.928;30.306;2023-04-10T02:52:30;11.60;;;2.70;;
41253;SDS011;26987;59.928;30.306;2023-04-10T02:54:57;3.80;;;1.52;;
41253;SDS011;26987;59.928;30.306;2023-04-10T02:57:34;3.15;;;1.42;;
41253;SDS011;26987;59.928;30.306;2023-04-10T03:00:02;3.90;;;1.95;;
41253;SDS011;26987;59.928;30.306;2023-04-10T03:02:52;4.55;;;1.50;;
41253;SDS011;26987;59.928;30.306;2023-04-10T03:05:20;5.22;;;2.35;;
41253;SDS011;26987;59.928;30.306;2023-04-10T03:07:48;6.57;;;1.73;;
41253;SDS011;26987;59.928;30.306;2023-04-10T03:10:17;8.48;;;2.15;;
41253;SDS011;26987;59.928;30.306;2023-04-10T03:12:46;22.58;;;2.17;;
41253;SDS011;26987;59.928;30.306;2023-04-10T03:15:14;6.03;;;1.58;;
41253;SDS011;26987;59.928;30.306;2023-04-10T03:17:42;6.88;;;1.85;;
41253;SDS011;26987;59.928;30.306;2023-04-10T03:20:12;13.25;;;2.60;;
41253;SDS011;26987;59.928;30.306;2023-04-10T03:22:40;7.05;;;1.20;;
41253;SDS011;26987;59.928;30.306;2023-04-10T03:25:09;9.05;;;1.83;;
41253;SDS011;26987;59.928;30.306;2023-04-10T03:27:37;8.20;;;1.67;;
41253;SDS011;26987;59.928;30.306;2023-04-10T03:30:07;8.20;;;1.85;;
41253;SDS011;26987;59.928;30.306;2023-04-10T03:32:39;6.60;;;1.35;;
41253;SDS011;26987;59.928;30.306;2023-04-10T03:35:08;6.78;;;1.77;;
41253;SDS011;26987;59.928;30.306;2023-04-10T03:37:38;4.25;;;1.85;;
41253;SDS011;26987;59.928;30.306;2023-04-10T03:40:07;6.43;;;2.08;;
41253;SDS011;26987;59.928;30.306;2023-04-10T03:42:36;9.00;;;2.10;;
41253;SDS011;26987;59.928;30.306;2023-04-10T03:45:05;9.77;;;1.88;;
41253;SDS011;26987;59.928;30.306;2023-04-10T03:47:34;10.80;;;2.08;;
41253;SDS011;26987;59.928;30.306;2023-04-10T03:50:05;14.57;;;2.78;;
41253;SDS011;26987;59.928;30.306;2023-04-10T03:52:46;10.27;;;2.50;;
41253;SDS011;26987;59.928;30.306;2023-04-10T03:55:16;6.97;;;1.55;;
41253;SDS011;26987;59.928;30.306;2023-04-10T03:57:45;9.38;;;2.03;;
41253;SDS011;26987;59.928;30.306;2023-04-10T04:00:15;6.60;;;1.83;;
41253;SDS011;26987;59.928;30.306;2023-04-10T04:02:46;9.15;;;2.55;;
41253;SDS011;26987;59.928;30.306;2023-04-10T04:05:35;7.82;;;2.08;;
41253;SDS011;26987;59.928;30.306;2023-04-10T04:08:25;6.30;;;1.67;;
41253;SDS011;26987;59.928;30.306;2023-04-10T04:11:22;6.05;;;1.83;;
41253;SDS011;26987;59.928;30.306;2023-04-10T04:14:11;8.98;;;2.05;;
41253;SDS011;26987;59.928;30.306;2023-04-10T04:16:55;8.57;;;2.08;;
41253;SDS011;26987;59.928;30.306;2023-04-10T04:19:51;6.57;;;1.90;;
41253;SDS011;26987;59.928;30.306;2023-04-10T04:22:42;13.73;;;2.80;;
41253;SDS011;26987;59.928;30.306;2023-04-10T04:25:31;13.27;;;2.10;;
41253;SDS011;26987;59.928;30.306;2023-04-10T04:28:07;10.00;;;1.90;;
41253;SDS011;26987;59.928;30.306;2023-04-10T04:30:55;11.43;;;2.45;;
41253;SDS011;26987;59.928;30.306;2023-04-10T04:33:41;7.10;;;2.15;;
41253;SDS011;26987;59.928;30.306;2023-04-10T04:36:29;10.88;;;2.30;;
41253;SDS011;26987;59.928;30.306;2023-04-10T04:39:13;9.27;;;2.20;;
41253;SDS011;26987;59.928;30.306;2023-04-10T04:42:01;14.98;;;2.55;;
41253;SDS011;26987;59.928;30.306;2023-04-10T04:44:32;11.32;;;1.85;;
41253;SDS011;26987;59.928;30.306;2023-04-10T04:47:14;14.38;;;2.70;;
41253;SDS011;26987;59.928;30.306;2023-04-10T04:50:06;16.65;;;2.53;;
41253;SDS011;26987;59.928;30.306;2023-04-10T04:53:01;8.32;;;2.35;;
41253;SDS011;26987;59.928;30.306;2023-04-10T04:55:39;18.50;;;2.63;;
41253;SDS011;26987;59.928;30.306;2023-04-10T04:58:37;14.02;;;2.35;;
41253;SDS011;26987;59.928;30.306;2023-04-10T05:01:34;11.90;;;2.40;;
41253;SDS011;26987;59.928;30.306;2023-04-10T05:04:31;14.10;;;2.75;;
41253;SDS011;26987;59.928;30.306;2023-04-10T05:07:18;16.48;;;2.60;;
41253;SDS011;26987;59.928;30.306;2023-04-10T05:09:46;14.23;;;3.15;;
41253;SDS011;26987;59.928;30.306;2023-04-10T05:12:41;24.50;;;4.53;;
41253;SDS011;26987;59.928;30.306;2023-04-10T05:15:23;13.38;;;2.85;;
41253;SDS011;26987;59.928;30.306;2023-04-10T05:18:10;25.60;;;3.03;;
41253;SDS011;26987;59.928;30.306;2023-04-10T05:20:57;16.33;;;3.22;;
41253;SDS011;26987;59.928;30.306;2023-04-10T05:23:54;25.52;;;4.00;;
41253;SDS011;26987;59.928;30.306;2023-04-10T05:26:48;21.03;;;2.80;;
41253;SDS011;26987;59.928;30.306;2023-04-10T05:29:40;20.00;;;3.17;;
41253;SDS011;26987;59.928;30.306;2023-04-10T05:32:26;30.80;;;4.00;;
41253;SDS011;26987;59.928;30.306;2023-04-10T05:35:14;19.15;;;3.20;;
41253;SDS011;26987;59.928;30.306;2023-04-10T05:37:50;18.45;;;3.25;;
41253;SDS011;26987;59.928;30.306;2023-04-10T05:40:29;26.10;;;3.92;;
41253;SDS011;26987;59.928;30.306;2023-04-10T05:43:15;20.65;;;4.03;;
41253;SDS011;26987;59.928;30.306;2023-04-10T05:46:02;26.63;;;3.72;;
41253;SDS011;26987;59.928;30.306;2023-04-10T05:48:51;25.63;;;3.78;;
41253;SDS011;26987;59.928;30.306;2023-04-10T05:51:37;17.25;;;4.25;;
41253;SDS011;26987;59.928;30.306;2023-04-10T05:54:23;20.90;;;3.83;;
41253;SDS011;26987;59.928;30.306;2023-04-10T05:57:24;31.05;;;4.68;;
41253;SDS011;26987;59.928;30.306;2023-04-10T06:00:15;30.20;;;4.55;;
41253;SDS011;26987;59.928;30.306;2023-04-10T06:03:07;30.73;;;5.38;;
41253;SDS011;26987;59.928;30.306;2023-04-10T06:05:47;19.88;;;4.63;;
41253;SDS011;26987;59.928;30.306;2023-04-10T06:08:15;14.55;;;4.72;;
41253;SDS011;26987;59.928;30.306;2023-04-10T06:10:44;17.08;;;4.22;;
41253;SDS011;26987;59.928;30.306;2023-04-10T06:13:13;19.13;;;4.07;;
41253;SDS011;26987;59.928;30.306;2023-04-10T06:15:41;17.23;;;5.13;;
41253;SDS011;26987;59.928;30.306;2023-04-10T06:18:09;33.88;;;5.03;;
41253;SDS011;26987;59.928;30.306;2023-04-10T06:20:37;21.88;;;5.05;;
41253;SDS011;26987;59.928;30.306;2023-04-10T06:23:06;18.58;;;5.50;;
41253;SDS011;26987;59.928;30.306;2023-04-10T06:25:36;32.35;;;5.13;;
41253;SDS011;26987;59.928;30.306;2023-04-10T06:28:04;16.35;;;5.05;;
41253;SDS011;26987;59.928;30.306;2023-04-10T06:30:32;17.30;;;4.88;;
41253;SDS011;26987;59.928;30.306;2023-04-10T06:33:02;15.40;;;4.28;;
41253;SDS011;26987;59.928;30.306;2023-04-10T06:35:33;26.88;;;4.85;;
41253;SDS011;26987;59.928;30.306;2023-04-10T06:38:03;27.05;;;5.82;;
41253;SDS011;26987;59.928;30.306;2023-04-10T06:40:35;27.70;;;4.80;;
41253;SDS011;26987;59.928;30.306;2023-04-10T06:43:03;26.52;;;4.78;;
41253;SDS011;26987;59.928;30.306;2023-04-10T06:48:05;25.70;;;5.38;;
41253;SDS011;26987;59.928;30.306;2023-04-10T06:50:33;22.30;;;5.15;;
41253;SDS011;26987;59.928;30.306;2023-04-10T06:53:01;31.02;;;5.15;;
41253;SDS011;26987;59.928;30.306;2023-04-10T06:55:29;19.60;;;5.38;;
41253;SDS011;26987;59.928;30.306;2023-04-10T06:57:58;25.38;;;5.78;;
41253;SDS011;26987;59.928;30.306;2023-04-10T07:00:26;22.88;;;5.40;;
41253;SDS011;26987;59.928;30.306;2023-04-10T07:02:54;23.48;;;5.68;;
41253;SDS011;26987;59.928;30.306;2023-04-10T07:05:22;25.35;;;4.80;;
41253;SDS011;26987;59.928;30.306;2023-04-10T07:07:50;16.80;;;4.80;;
41253;SDS011;26987;59.928;30.306;2023-04-10T07:10:18;22.98;;;5.05;;
41253;SDS011;26987;59.928;30.306;2023-04-10T07:12:46;15.90;;;4.95;;
41253;SDS011;26987;59.928;30.306;2023-04-10T07:15:15;25.98;;;5.15;;
41253;SDS011;26987;59.928;30.306;2023-04-10T07:17:43;22.75;;;4.90;;
41253;SDS011;26987;59.928;30.306;2023-04-10T07:20:11;17.15;;;5.13;;
41253;SDS011;26987;59.928;30.306;2023-04-10T07:22:39;13.32;;;5.15;;
41253;SDS011;26987;59.928;30.306;2023-04-10T07:25:07;22.45;;;5.07;;
41253;SDS011;26987;59.928;30.306;2023-04-10T07:27:35;21.48;;;6.00;;
41253;SDS011;26987;59.928;30.306;2023-04-10T07:30:03;19.33;;;4.97;;
41253;SDS011;26987;59.928;30.306;2023-04-10T07:32:34;17.23;;;5.03;;
41253;SDS011;26987;59.928;30.306;2023-04-10T07:35:03;28.88;;;6.60;;
41253;SDS011;26987;59.928;30.306;2023-04-10T07:37:32;26.20;;;5.75;;
41253;SDS011;26987;59.928;30.306;2023-04-10T07:40:00;31.52;;;5.80;;
41253;SDS011;26987;59.928;30.306;2023-04-10T07:42:28;36.67;;;5.88;;
41253;SDS011;26987;59.928;30.306;2023-04-10T07:44:56;15.95;;;5.55;;
41253;SDS011;26987;59.928;30.306;2023-04-10T07:47:24;19.05;;;5.32;;
41253;SDS011;26987;59.928;30.306;2023-04-10T07:49:53;18.55;;;5.32;;
41253;SDS011;26987;59.928;30.306;2023-04-10T07:52:21;16.45;;;5.57;;
41253;SDS011;26987;59.928;30.306;2023-04-10T07:54:49;14.13;;;4.43;;
41253;SDS011;26987;59.928;30.306;2023-04-10T07:57:17;27.85;;;5.47;;
41253;SDS011;26987;59.928;30.306;2023-04-10T07:59:45;22.90;;;6.22;;
41253;SDS011;26987;59.928;30.306;2023-04-10T08:02:13;14.75;;;4.55;;
41253;SDS011;26987;59.928;30.306;2023-04-10T08:04:41;17.00;;;5.30;;
41253;SDS011;26987;59.928;30.306;2023-04-10T08:07:10;18.05;;;5.13;;
41253;SDS011;26987;59.928;30.306;2023-04-10T08:09:38;18.80;;;5.07;;
41253;SDS011;26987;59.928;30.306;2023-04-10T08:12:06;22.90;;;5.35;;
41253;SDS011;26987;59.928;30.306;2023-04-10T08:14:33;16.80;;;4.82;;
41253;SDS011;26987;59.928;30.306;2023-04-10T08:17:01;27.85;;;5.63;;
41253;SDS011;26987;59.928;30.306;2023-04-10T08:19:29;20.80;;;6.97;;
41253;SDS011;26987;59.928;30.306;2023-04-10T08:21:57;19.63;;;5.47;;
41253;SDS011;26987;59.928;30.306;2023-04-10T08:24:26;25.67;;;6.40;;
41253;SDS011;26987;59.928;30.306;2023-04-10T08:26:54;19.67;;;7.75;;
41253;SDS011;26987;59.928;30.306;2023-04-10T08:29:22;30.25;;;6.68;;
41253;SDS011;26987;59.928;30.306;2023-04-10T08:31:50;30.45;;;5.93;;
41253;SDS011;26987;59.928;30.306;2023-04-10T08:34:19;27.30;;;6.53;;
41253;SDS011;26987;59.928;30.306;2023-04-10T08:36:49;30.77;;;5.95;;
41253;SDS011;26987;59.928;30.306;2023-04-10T08:39:17;25.38;;;6.40;;
41253;SDS011;26987;59.928;30.306;2023-04-10T08:41:46;21.92;;;5.10;;
41253;SDS011;26987;59.928;30.306;2023-04-10T08:44:14;30.45;;;6.55;;
41253;SDS011;26987;59.928;30.306;2023-04-10T08:46:42;9.95;;;5.30;;
41253;SDS011;26987;59.928;30.306;2023-04-10T08:49:14;13.55;;;5.28;;
41253;SDS011;26987;59.928;30.306;2023-04-10T08:51:51;21.20;;;6.40;;
41253;SDS011;26987;59.928;30.306;2023-04-10T08:54:24;26.38;;;6.72;;
41253;SDS011;26987;59.928;30.306;2023-04-10T08:56:55;19.23;;;6.00;;
41253;SDS011;26987;59.928;30.306;2023-04-10T08:59:26;18.45;;;5.55;;
41253;SDS011;26987;59.928;30.306;2023-04-10T09:01:55;21.73;;;7.07;;
41253;SDS011;26987;59.928;30.306;2023-04-10T09:04:23;15.52;;;6.22;;
41253;SDS011;26987;59.928;30.306;2023-04-10T09:06:52;17.38;;;5.88;;
41253;SDS011;26987;59.928;30.306;2023-04-10T09:09:19;20.23;;;5.88;;
41253;SDS011;26987;59.928;30.306;2023-04-10T09:11:58;22.27;;;6.60;;
41253;SDS011;26987;59.928;30.306;2023-04-10T09:14:29;30.15;;;6.47;;
41253;SDS011;26987;59.928;30.306;2023-04-10T09:17:11;23.50;;;5.72;;
41253;SDS011;26987;59.928;30.306;2023-04-10T09:19:40;14.73;;;5.97;;
41253;SDS011;26987;59.928;30.306;2023-04-10T09:22:09;43.45;;;7.57;;
41253;SDS011;26987;59.928;30.306;2023-04-10T09:24:37;19.00;;;5.70;;
41253;SDS011;26987;59.928;30.306;2023-04-10T09:27:07;17.45;;;4.30;;
41253;SDS011;26987;59.928;30.306;2023-04-10T09:29:40;18.05;;;4.85;;
41253;SDS011;26987;59.928;30.306;2023-04-10T09:32:10;19.98;;;5.40;;
41253;SDS011;26987;59.928;30.306;2023-04-10T09:34:51;23.80;;;5.20;;
41253;SDS011;26987;59.928;30.306;2023-04-10T09:37:20;24.42;;;5.72;;
41253;SDS011;26987;59.928;30.306;2023-04-10T09:39:48;17.05;;;6.10;;
41253;SDS011;26987;59.928;30.306;2023-04-10T09:42:17;23.92;;;5.72;;
41253;SDS011;26987;59.928;30.306;2023-04-10T09:44:57;29.30;;;6.72;;
41253;SDS011;26987;59.928;30.306;2023-04-10T09:47:26;16.60;;;5.45;;
41253;SDS011;26987;59.928;30.306;2023-04-10T09:49:55;18.38;;;4.97;;
41253;SDS011;26987;59.928;30.306;2023-04-10T09:52:26;22.67;;;5.78;;
41253;SDS011;26987;59.928;30.306;2023-04-10T09:54:55;18.95;;;5.80;;
41253;SDS011;26987;59.928;30.306;2023-04-10T09:57:27;30.45;;;5.55;;
41253;SDS011;26987;59.928;30.306;2023-04-10T09:59:56;27.10;;;4.78;;
41253;SDS011;26987;59.928;30.306;2023-04-10T10:02:25;13.43;;;5.15;;
41253;SDS011;26987;59.928;30.306;2023-04-10T10:04:56;20.95;;;5.25;;
41253;SDS011;26987;59.928;30.306;2023-04-10T10:07:26;18.60;;;5.03;;
41253;SDS011;26987;59.928;30.306;2023-04-10T10:09:56;19.33;;;4.85;;
41253;SDS011;26987;59.928;30.306;2023-04-10T10:12:27;19.50;;;6.20;;
41253;SDS011;26987;59.928;30.306;2023-04-10T10:15:01;9.07;;;4.10;;
41253;SDS011;26987;59.928;30.306;2023-04-10T10:17:36;23.95;;;4.85;;
41253;SDS011;26987;59.928;30.306;2023-04-10T10:20:09;10.50;;;4.53;;
41253;SDS011;26987;59.928;30.306;2023-04-10T10:22:39;22.42;;;4.07;;
41253;SDS011;26987;59.928;30.306;2023-04-10T10:25:08;16.27;;;3.28;;
41253;SDS011;26987;59.928;30.306;2023-04-10T10:27:38;11.05;;;3.67;;
41253;SDS011;26987;59.928;30.306;2023-04-10T10:30:08;25.27;;;3.72;;
41253;SDS011;26987;59.928;30.306;2023-04-10T10:32:38;13.48;;;3.00;;
41253;SDS011;26987;59.928;30.306;2023-04-10T10:35:07;10.88;;;3.95;;
41253;SDS011;26987;59.928;30.306;2023-04-10T10:37:36;10.93;;;2.83;;
41253;SDS011;26987;59.928;30.306;2023-04-10T10:40:06;33.15;;;5.78;;
41253;SDS011;26987;59.928;30.306;2023-04-10T10:42:44;24.70;;;3.53;;
41253;SDS011;26987;59.928;30.306;2023-04-10T10:45:17;8.98;;;3.17;;
41253;SDS011;26987;59.928;30.306;2023-04-10T10:47:48;13.20;;;2.60;;
41253;SDS011;26987;59.928;30.306;2023-04-10T10:50:18;18.92;;;3.80;;
41253;SDS011;26987;59.928;30.306;2023-04-10T10:52:48;14.73;;;2.70;;
41253;SDS011;26987;59.928;30.306;2023-04-10T10:55:30;5.60;;;2.65;;
41253;SDS011;26987;59.928;30.306;2023-04-10T10:58:01;5.63;;;2.15;;
41253;SDS011;26987;59.928;30.306;2023-04-10T11:03:33;7.85;;;2.17;;
41253;SDS011;26987;59.928;30.306;2023-04-10T11:06:01;7.35;;;2.47;;
41253;SDS011;26987;59.928;30.306;2023-04-10T11:08:35;12.52;;;2.90;;
41253;SDS011;26987;59.928;30.306;2023-04-10T11:11:10;28.73;;;4.90;;
41253;SDS011;26987;59.928;30.306;2023-04-10T11:14:11;24.55;;;4.53;;
41253;SDS011;26987;59.928;30.306;2023-04-10T11:16:44;24.15;;;4.20;;
41253;SDS011;26987;59.928;30.306;2023-04-10T11:19:13;25.52;;;4.15;;
41253;SDS011;26987;59.928;30.306;2023-04-10T11:22:02;12.90;;;2.78;;
41253;SDS011;26987;59.928;30.306;2023-04-10T11:24:51;9.27;;;2.75;;
41253;SDS011;26987;59.928;30.306;2023-04-10T11:27:39;8.25;;;2.47;;
41253;SDS011;26987;59.928;30.306;2023-04-10T11:30:27;10.93;;;2.55;;
41253;SDS011;26987;59.928;30.306;2023-04-10T11:32:56;6.70;;;2.53;;
41253;SDS011;26987;59.928;30.306;2023-04-10T11:35:25;6.55;;;2.13;;
41253;SDS011;26987;59.928;30.306;2023-04-10T11:38:13;8.52;;;2.25;;
41253;SDS011;26987;59.928;30.306;2023-04-10T11:40:55;8.93;;;2.97;;
41253;SDS011;26987;59.928;30.306;2023-04-10T11:43:24;8.85;;;2.40;;
41253;SDS011;26987;59.928;30.306;2023-04-10T11:46:00;16.98;;;2.22;;
41253;SDS011;26987;59.928;30.306;2023-04-10T11:48:30;12.90;;;2.92;;
41253;SDS011;26987;59.928;30.306;2023-04-10T11:50:58;6.20;;;2.55;;
41253;SDS011;26987;59.928;30.306;2023-04-10T11:56:00;8.20;;;2.53;;
41253;SDS011;26987;59.928;30.306;2023-04-10T11:58:28;11.32;;;2.72;;
41253;SDS011;26987;59.928;30.306;2023-04-10T12:00:57;7.28;;;2.53;;
41253;SDS011;26987;59.928;30.306;2023-04-10T12:03:34;12.45;;;3.15;;
41253;SDS011;26987;59.928;30.306;2023-04-10T12:06:07;12.55;;;3.25;;
41253;SDS011;26987;59.928;30.306;2023-04-10T12:08:37;9.45;;;3.35;;
41253;SDS011;26987;59.928;30.306;2023-04-10T12:11:06;9.02;;;3.55;;
41253;SDS011;26987;59.928;30.306;2023-04-10T12:13:35;17.55;;;3.45;;
41253;SDS011;26987;59.928;30.306;2023-04-10T12:16:05;12.43;;;3.85;;
41253;SDS011;26987;59.928;30.306;2023-04-10T12:18:37;24.23;;;4.50;;
41253;SDS011;26987;59.928;30.306;2023-04-10T12:21:05;27.35;;;5.32;;
41253;SDS011;26987;59.928;30.306;2023-04-10T12:23:35;23.80;;;4.82;;
41253;SDS011;26987;59.928;30.306;2023-04-10T12:26:09;18.75;;;4.20;;
41253;SDS011;26987;59.928;30.306;2023-04-10T12:28:39;22.27;;;5.95;;
41253;SDS011;26987;59.928;30.306;2023-04-10T12:31:08;13.68;;;4.10;;
41253;SDS011;26987;59.928;30.306;2023-04-10T12:33:38;13.43;;;3.85;;
41253;SDS011;26987;59.928;30.306;2023-04-10T12:36:06;9.98;;;3.60;;
41253;SDS011;26987;59.928;30.306;2023-04-10T12:38:46;12.18;;;3.38;;
41253;SDS011;26987;59.928;30.306;2023-04-10T12:41:19;22.48;;;3.85;;
41253;SDS011;26987;59.928;30.306;2023-04-10T12:43:49;9.03;;;3.13;;
41253;SDS011;26987;59.928;30.306;2023-04-10T12:46:22;16.25;;;4.43;;
41253;SDS011;26987;59.928;30.306;2023-04-10T12:48:53;15.40;;;5.72;;
41253;SDS011;26987;59.928;30.306;2023-04-10T12:54:26;21.60;;;6.38;;
41253;SDS011;26987;59.928;30.306;2023-04-10T12:56:55;21.33;;;5.47;;
41253;SDS011;26987;59.928;30.306;2023-04-10T12:59:23;28.15;;;6.30;;
41253;SDS011;26987;59.928;30.306;2023-04-10T13:01:52;27.38;;;5.25;;
41253;SDS011;26987;59.928;30.306;2023-04-10T13:04:22;23.52;;;5.40;;
41253;SDS011;26987;59.928;30.306;2023-04-10T13:06:50;19.80;;;4.68;;
41253;SDS011;26987;59.928;30.306;2023-04-10T13:09:18;25.10;;;5.65;;
41253;SDS011;26987;59.928;30.306;2023-04-10T13:11:46;14.15;;;4.03;;
41253;SDS011;26987;59.928;30.306;2023-04-10T13:14:14;15.85;;;4.70;;
41253;SDS011;26987;59.928;30.306;2023-04-10T13:16:42;15.73;;;4.00;;
41253;SDS011;26987;59.928;30.306;2023-04-10T13:19:10;10.23;;;4.15;;
41253;SDS011;26987;59.928;30.306;2023-04-10T13:21:40;16.30;;;4.38;;
41253;SDS011;26987;59.928;30.306;2023-04-10T13:24:08;14.07;;;3.83;;
41253;SDS011;26987;59.928;30.306;2023-04-10T13:26:36;17.60;;;4.65;;
41253;SDS011;26987;59.928;30.306;2023-04-10T13:29:03;14.55;;;5.10;;
41253;SDS011;26987;59.928;30.306;2023-04-10T13:31:31;18.40;;;4.38;;
41253;SDS011;26987;59.928;30.306;2023-04-10T13:33:59;15.48;;;5.32;;
41253;SDS011;26987;59.928;30.306;2023-04-10T13:36:27;25.23;;;5.88;;
41253;SDS011;26987;59.928;30.306;2023-04-10T13:38:57;24.05;;;6.85;;
41253;SDS011;26987;59.928;30.306;2023-04-10T13:41:25;33.17;;;6.20;;
41253;SDS011;26987;59.928;30.306;2023-04-10T13:43:53;22.20;;;6.22;;
41253;SDS011;26987;59.928;30.306;2023-04-10T13:46:21;23.88;;;6.00;;
41253;SDS011;26987;59.928;30.306;2023-04-10T13:48:49;30.00;;;5.85;;
41253;SDS011;26987;59.928;30.306;2023-04-10T13:51:17;28.10;;;7.35;;
41253;SDS011;26987;59.928;30.306;2023-04-10T13:53:44;33.55;;;7.05;;
41253;SDS011;26987;59.928;30.306;2023-04-10T13:56:14;27.45;;;7.55;;
41253;SDS011;26987;59.928;30.306;2023-04-10T13:58:42;43.60;;;7.57;;
41253;SDS011;26987;59.928;30.306;2023-04-10T14:01:11;40.88;;;8.25;;
41253;SDS011;26987;59.928;30.306;2023-04-10T14:03:39;28.75;;;6.78;;
41253;SDS011;26987;59.928;30.306;2023-04-10T14:06:07;21.13;;;6.75;;
41253;SDS011;26987;59.928;30.306;2023-04-10T14:08:35;41.33;;;7.05;;
41253;SDS011;26987;59.928;30.306;2023-04-10T14:11:03;25.33;;;6.55;;
41253;SDS011;26987;59.928;30.306;2023-04-10T14:13:32;40.00;;;6.57;;
41253;SDS011;26987;59.928;30.306;2023-04-10T14:16:00;32.90;;;6.60;;
41253;SDS011;26987;59.928;30.306;2023-04-10T14:18:29;17.02;;;5.80;;
41253;SDS011;26987;59.928;30.306;2023-04-10T14:20:56;30.77;;;8.85;;
41253;SDS011;26987;59.928;30.306;2023-04-10T14:23:24;27.70;;;5.18;;
41253;SDS011;26987;59.928;30.306;2023-04-10T14:25:52;25.88;;;4.65;;
41253;SDS011;26987;59.928;30.306;2023-04-10T14:28:20;18.02;;;3.90;;
41253;SDS011;26987;59.928;30.306;2023-04-10T14:30:50;27.02;;;3.95;;
41253;SDS011;26987;59.928;30.306;2023-04-10T14:33:18;15.00;;;3.15;;
41253;SDS011;26987;59.928;30.306;2023-04-10T14:35:46;23.63;;;3.92;;
41253;SDS011;26987;59.928;30.306;2023-04-10T14:38:14;16.63;;;3.20;;
41253;SDS011;26987;59.928;30.306;2023-04-10T14:40:42;15.05;;;3.45;;
41253;SDS011;26987;59.928;30.306;2023-04-10T14:43:13;14.23;;;3.00;;
41253;SDS011;26987;59.928;30.306;2023-04-10T14:45:41;23.48;;;2.85;;
41253;SDS011;26987;59.928;30.306;2023-04-10T14:48:10;26.58;;;2.88;;
41253;SDS011;26987;59.928;30.306;2023-04-10T14:50:38;13.93;;;2.50;;
41253;SDS011;26987;59.928;30.306;2023-04-10T14:53:06;11.02;;;2.70;;
41253;SDS011;26987;59.928;30.306;2023-04-10T14:55:35;21.42;;;3.30;;
41253;SDS011;26987;59.928;30.306;2023-04-10T14:58:03;11.90;;;3.10;;
41253;SDS011;26987;59.928;30.306;2023-04-10T15:00:33;10.55;;;2.60;;
41253;SDS011;26987;59.928;30.306;2023-04-10T15:03:01;17.25;;;3.15;;
41253;SDS011;26987;59.928;30.306;2023-04-10T15:05:32;15.13;;;3.17;;
41253;SDS011;26987;59.928;30.306;2023-04-10T15:08:00;10.45;;;2.33;;